createdAt,value
2017-08-31T00:00:21.201Z,74.77
2017-08-31T00:01:18.470Z,74.80
2017-08-31T00:02:15.773Z,74.81
2017-08-31T00:03:13.038Z,74.83
2017-08-31T00:04:10.338Z,74.86
2017-08-31T00:05:07.609Z,74.87
2017-08-31T00:06:04.882Z,74.89
2017-08-31T00:07:02.113Z,74.90
2017-08-31T00:07:59.406Z,74.92
2017-08-31T00:08:56.666Z,74.93
2017-08-31T00:09:53.937Z,74.95
2017-08-31T00:10:53.237Z,74.94
2017-08-31T00:11:50.505Z,74.97
2017-08-31T00:12:47.782Z,74.99
2017-08-31T00:13:45.044Z,74.99
2017-08-31T00:14:42.297Z,74.99
2017-08-31T00:15:39.566Z,75.00
2017-08-31T00:16:36.814Z,74.99
2017-08-31T00:17:34.098Z,75.01
2017-08-31T00:18:31.381Z,75.01
2017-08-31T00:19:28.677Z,75.03
2017-08-31T00:20:25.965Z,75.04
2017-08-31T00:21:23.255Z,75.04
2017-08-31T00:22:20.510Z,75.06
2017-08-31T00:23:17.800Z,75.06
2017-08-31T00:24:15.052Z,75.06
2017-08-31T00:25:12.313Z,75.07
2017-08-31T00:26:09.570Z,75.08
2017-08-31T00:27:06.877Z,75.07
2017-08-31T00:28:04.179Z,75.09
2017-08-31T00:29:01.462Z,75.10
2017-08-31T00:29:58.714Z,75.11
2017-08-31T00:30:55.990Z,75.08
2017-08-31T00:31:53.240Z,75.10
2017-08-31T00:32:50.526Z,75.09
2017-08-31T00:33:47.845Z,75.10
2017-08-31T00:34:45.130Z,75.12
2017-08-31T00:35:42.402Z,75.11
2017-08-31T00:36:39.853Z,75.12
2017-08-31T00:37:37.100Z,75.12
2017-08-31T00:38:34.465Z,75.13
2017-08-31T00:39:31.757Z,75.15
2017-08-31T00:40:29.033Z,75.15
2017-08-31T00:41:26.287Z,75.15
2017-08-31T00:42:23.554Z,75.16
2017-08-31T00:43:20.828Z,75.16
2017-08-31T00:44:18.125Z,75.18
2017-08-31T00:45:15.405Z,75.17
2017-08-31T00:46:12.719Z,75.21
2017-08-31T00:47:12.037Z,75.22
2017-08-31T00:48:09.309Z,75.23
2017-08-31T00:49:06.572Z,75.23
2017-08-31T00:50:03.854Z,75.26
2017-08-31T00:51:01.088Z,75.27
2017-08-31T00:51:58.369Z,75.30
2017-08-31T00:52:55.618Z,75.31
2017-08-31T00:53:52.909Z,75.32
2017-08-31T00:54:50.169Z,75.32
2017-08-31T00:55:47.437Z,75.35
2017-08-31T00:56:44.697Z,75.35
2017-08-31T00:57:41.965Z,75.39
2017-08-31T00:58:39.281Z,75.40
2017-08-31T00:59:36.593Z,75.39
2017-08-31T01:00:33.877Z,75.38
2017-08-31T01:01:31.158Z,75.41
2017-08-31T01:02:28.425Z,75.44
2017-08-31T01:03:25.693Z,75.46
2017-08-31T01:04:22.952Z,75.46
2017-08-31T01:05:20.249Z,75.47
2017-08-31T01:06:17.493Z,75.44
2017-08-31T01:07:14.769Z,75.48
2017-08-31T01:08:12.041Z,75.47
2017-08-31T01:09:09.339Z,75.46
2017-08-31T01:10:06.601Z,75.50
2017-08-31T01:11:03.873Z,75.49
2017-08-31T01:12:01.103Z,75.50
2017-08-31T01:12:58.373Z,75.52
2017-08-31T01:13:55.648Z,75.53
2017-08-31T01:14:52.933Z,75.53
2017-08-31T01:15:50.189Z,75.54
2017-08-31T01:16:47.478Z,75.54
2017-08-31T01:17:44.742Z,75.55
2017-08-31T01:18:42.029Z,75.57
2017-08-31T01:19:39.278Z,75.58
2017-08-31T01:20:38.485Z,75.57
2017-08-31T01:21:35.759Z,75.60
2017-08-31T01:22:32.997Z,75.60
2017-08-31T01:23:30.270Z,75.60
2017-08-31T01:24:27.538Z,75.62
2017-08-31T01:25:24.798Z,75.61
2017-08-31T01:26:22.069Z,75.63
2017-08-31T01:27:19.341Z,75.62
2017-08-31T01:28:16.606Z,75.62
2017-08-31T01:29:13.881Z,75.62
2017-08-31T01:30:11.107Z,75.60
2017-08-31T01:31:08.398Z,75.59
2017-08-31T01:32:05.673Z,75.61
2017-08-31T01:33:02.933Z,75.60
2017-08-31T01:34:00.186Z,75.60
2017-08-31T01:34:57.462Z,75.59
2017-08-31T01:35:54.720Z,75.61
2017-08-31T01:36:52.010Z,75.58
2017-08-31T01:37:49.302Z,75.55
2017-08-31T01:38:46.577Z,75.51
2017-08-31T01:39:43.806Z,75.51
2017-08-31T01:40:41.202Z,75.52
2017-08-31T01:41:38.534Z,75.52
2017-08-31T01:42:35.817Z,75.51
2017-08-31T01:43:33.066Z,75.54
2017-08-31T01:44:30.332Z,75.51
2017-08-31T01:45:27.577Z,75.52
2017-08-31T01:46:24.874Z,75.49
2017-08-31T01:47:22.129Z,75.50
2017-08-31T01:48:19.373Z,75.48
2017-08-31T01:49:16.667Z,75.50
2017-08-31T01:50:13.921Z,75.54
2017-08-31T01:51:11.185Z,75.50
2017-08-31T01:52:08.505Z,75.52
2017-08-31T01:53:05.745Z,75.52
2017-08-31T01:54:03.005Z,75.55
2017-08-31T01:55:00.262Z,75.53
2017-08-31T01:55:57.541Z,75.56
2017-08-31T01:56:54.799Z,75.57
2017-08-31T01:57:52.071Z,75.57
2017-08-31T01:58:49.368Z,75.56
2017-08-31T01:59:46.626Z,75.57
2017-08-31T02:00:43.886Z,75.55
2017-08-31T02:01:41.161Z,75.57
2017-08-31T02:02:38.442Z,75.58
2017-08-31T02:03:35.739Z,75.58
2017-08-31T02:04:32.999Z,75.57
2017-08-31T02:05:30.269Z,75.59
2017-08-31T02:06:27.509Z,75.60
2017-08-31T02:07:24.798Z,75.60
2017-08-31T02:08:22.037Z,75.60
2017-08-31T02:09:19.293Z,75.61
2017-08-31T02:10:16.549Z,75.59
2017-08-31T02:11:13.814Z,75.61
2017-08-31T02:12:11.060Z,75.64
2017-08-31T02:13:08.450Z,75.63
2017-08-31T02:14:05.721Z,75.66
2017-08-31T02:15:02.986Z,75.65
2017-08-31T02:16:00.257Z,75.69
2017-08-31T02:16:57.520Z,75.69
2017-08-31T02:17:54.781Z,75.70
2017-08-31T02:18:52.032Z,75.69
2017-08-31T02:19:49.333Z,75.74
2017-08-31T02:20:46.613Z,75.73
2017-08-31T02:21:43.846Z,75.72
2017-08-31T02:22:41.113Z,75.74
2017-08-31T02:23:38.372Z,75.74
2017-08-31T02:24:35.637Z,75.76
2017-08-31T02:25:32.894Z,75.76
2017-08-31T02:26:30.169Z,75.77
2017-08-31T02:27:27.409Z,75.79
2017-08-31T02:28:24.679Z,75.79
2017-08-31T02:29:21.934Z,75.84
2017-08-31T02:30:19.294Z,75.83
2017-08-31T02:31:16.535Z,75.88
2017-08-31T02:32:13.806Z,75.87
2017-08-31T02:33:11.093Z,75.88
2017-08-31T02:34:08.360Z,75.90
2017-08-31T02:35:05.609Z,75.92
2017-08-31T02:36:02.871Z,75.94
2017-08-31T02:37:00.141Z,75.94
2017-08-31T02:37:57.397Z,75.95
2017-08-31T02:38:54.661Z,75.98
2017-08-31T02:39:51.922Z,75.98
2017-08-31T02:40:49.174Z,75.97
2017-08-31T02:41:46.445Z,76.00
2017-08-31T02:42:43.676Z,76.02
2017-08-31T02:43:42.086Z,76.01
2017-08-31T02:44:39.321Z,76.02
2017-08-31T02:45:36.640Z,76.06
2017-08-31T02:46:33.887Z,76.07
2017-08-31T02:47:31.155Z,76.09
2017-08-31T02:48:28.416Z,76.13
2017-08-31T02:49:25.722Z,76.16
2017-08-31T02:50:22.982Z,76.18
2017-08-31T02:51:20.254Z,76.19
2017-08-31T02:52:17.505Z,76.21
2017-08-31T02:53:14.781Z,76.22
2017-08-31T02:54:12.049Z,76.23
2017-08-31T02:55:09.338Z,76.26
2017-08-31T02:56:06.581Z,76.29
2017-08-31T02:57:03.867Z,76.31
2017-08-31T02:58:01.109Z,76.33
2017-08-31T02:58:58.388Z,76.35
2017-08-31T02:59:55.661Z,76.37
2017-08-31T03:00:52.974Z,76.38
2017-08-31T03:01:50.229Z,76.39
2017-08-31T03:02:47.503Z,76.42
2017-08-31T03:03:44.773Z,76.43
2017-08-31T03:04:42.061Z,76.45
2017-08-31T03:05:39.321Z,76.45
2017-08-31T03:06:36.592Z,76.47
2017-08-31T03:07:33.859Z,76.50
2017-08-31T03:08:31.136Z,76.52
2017-08-31T03:09:28.397Z,76.54
2017-08-31T03:10:25.711Z,76.55
2017-08-31T03:11:22.973Z,76.52
2017-08-31T03:12:20.232Z,76.47
2017-08-31T03:13:17.463Z,76.44
2017-08-31T03:14:14.743Z,76.39
2017-08-31T03:15:12.015Z,76.38
2017-08-31T03:16:09.289Z,76.34
2017-08-31T03:17:06.548Z,76.26
2017-08-31T03:18:03.811Z,76.20
2017-08-31T03:19:01.073Z,76.12
2017-08-31T03:19:58.353Z,76.09
2017-08-31T03:20:55.638Z,76.07
2017-08-31T03:21:52.916Z,76.04
2017-08-31T03:22:50.174Z,76.00
2017-08-31T03:23:47.463Z,75.98
2017-08-31T03:24:44.717Z,75.91
2017-08-31T03:25:42.039Z,75.85
2017-08-31T03:26:39.301Z,75.82
2017-08-31T03:27:36.583Z,75.79
2017-08-31T03:28:33.862Z,75.74
2017-08-31T03:29:31.156Z,75.70
2017-08-31T03:30:28.409Z,75.64
2017-08-31T03:31:25.853Z,75.59
2017-08-31T03:32:23.121Z,75.58
2017-08-31T03:33:20.414Z,75.52
2017-08-31T03:34:17.697Z,75.50
2017-08-31T03:35:14.974Z,75.45
2017-08-31T03:36:12.241Z,75.41
2017-08-31T03:37:09.561Z,75.39
2017-08-31T03:38:06.834Z,75.34
2017-08-31T03:39:04.121Z,75.29
2017-08-31T03:40:01.390Z,75.26
2017-08-31T03:40:58.693Z,75.22
2017-08-31T03:41:55.978Z,75.19
2017-08-31T03:42:53.248Z,75.13
2017-08-31T03:43:50.505Z,75.12
2017-08-31T03:44:47.778Z,75.05
2017-08-31T03:45:45.040Z,75.02
2017-08-31T03:46:42.329Z,74.97
2017-08-31T03:47:39.658Z,74.96
2017-08-31T03:48:36.932Z,74.91
2017-08-31T03:49:34.182Z,74.89
2017-08-31T03:50:31.457Z,74.86
2017-08-31T03:51:28.718Z,74.81
2017-08-31T03:52:26.004Z,74.78
2017-08-31T03:53:23.259Z,74.75
2017-08-31T03:54:20.533Z,74.69
2017-08-31T03:55:17.793Z,74.66
2017-08-31T03:56:15.075Z,74.64
2017-08-31T03:57:12.332Z,74.57
2017-08-31T03:58:09.609Z,74.54
2017-08-31T03:59:06.881Z,74.48
2017-08-31T04:00:04.134Z,74.47
2017-08-31T04:01:01.394Z,74.43
2017-08-31T04:01:58.678Z,74.39
2017-08-31T04:02:55.973Z,74.32
2017-08-31T04:03:53.229Z,74.29
2017-08-31T04:04:50.483Z,74.24
2017-08-31T04:05:47.746Z,74.16
2017-08-31T04:06:45.040Z,74.12
2017-08-31T04:07:42.363Z,74.06
2017-08-31T04:08:39.622Z,74.03
2017-08-31T04:09:36.907Z,74.00
2017-08-31T04:10:34.157Z,73.97
2017-08-31T04:11:31.430Z,73.95
2017-08-31T04:12:28.673Z,73.89
2017-08-31T04:13:25.984Z,73.87
2017-08-31T04:14:23.222Z,73.79
2017-08-31T04:15:20.509Z,73.76
2017-08-31T04:16:17.777Z,73.73
2017-08-31T04:17:15.050Z,73.71
2017-08-31T04:18:12.281Z,73.68
2017-08-31T04:19:09.572Z,73.61
2017-08-31T04:20:06.808Z,73.57
2017-08-31T04:21:04.077Z,73.53
2017-08-31T04:22:01.362Z,73.49
2017-08-31T04:22:58.637Z,73.48
2017-08-31T04:23:55.900Z,73.44
2017-08-31T04:24:53.210Z,73.41
2017-08-31T04:25:50.463Z,73.38
2017-08-31T04:26:47.750Z,73.34
2017-08-31T04:27:45.001Z,73.32
2017-08-31T04:28:42.339Z,73.31
2017-08-31T04:29:39.577Z,73.28
2017-08-31T04:30:36.872Z,73.24
2017-08-31T04:31:34.102Z,73.22
2017-08-31T04:32:31.381Z,73.19
2017-08-31T04:33:28.677Z,73.17
2017-08-31T04:34:25.995Z,73.14
2017-08-31T04:35:23.252Z,73.10
2017-08-31T04:36:20.521Z,73.10
2017-08-31T04:37:17.797Z,73.08
2017-08-31T04:38:15.105Z,73.08
2017-08-31T04:39:12.349Z,73.04
2017-08-31T04:40:09.650Z,72.99
2017-08-31T04:41:06.898Z,72.97
2017-08-31T04:42:04.164Z,72.95
2017-08-31T04:43:01.409Z,72.94
2017-08-31T04:43:58.701Z,72.92
2017-08-31T04:44:55.971Z,72.92
2017-08-31T04:45:53.253Z,72.87
2017-08-31T04:46:50.510Z,72.84
2017-08-31T04:47:47.785Z,72.81
2017-08-31T04:48:45.029Z,72.76
2017-08-31T04:49:42.332Z,72.74
2017-08-31T04:50:39.573Z,72.73
2017-08-31T04:51:36.829Z,72.69
2017-08-31T04:52:34.061Z,72.68
2017-08-31T04:53:31.325Z,72.65
2017-08-31T04:54:28.696Z,72.67
2017-08-31T04:55:25.985Z,72.65
2017-08-31T04:56:23.241Z,72.67
2017-08-31T04:57:20.552Z,72.63
2017-08-31T04:58:17.810Z,72.62
2017-08-31T04:59:15.085Z,72.62
2017-08-31T05:00:12.321Z,72.60
2017-08-31T05:01:09.632Z,72.58
2017-08-31T05:02:08.954Z,72.57
2017-08-31T05:03:06.273Z,72.56
2017-08-31T05:04:05.591Z,72.53
2017-08-31T05:05:02.935Z,72.51
2017-08-31T05:06:00.250Z,72.49
2017-08-31T05:06:57.588Z,72.49
2017-08-31T05:07:54.881Z,72.49
2017-08-31T05:08:52.197Z,72.53
2017-08-31T05:09:49.541Z,72.54
2017-08-31T05:10:46.907Z,72.54
2017-08-31T05:11:44.207Z,72.53
2017-08-31T05:12:41.593Z,72.51
2017-08-31T05:13:38.949Z,72.53
2017-08-31T05:14:36.319Z,72.50
2017-08-31T05:15:33.609Z,72.50
2017-08-31T05:16:30.978Z,72.49
2017-08-31T05:17:28.316Z,72.50
2017-08-31T05:18:25.626Z,72.52
2017-08-31T05:19:23.007Z,72.51
2017-08-31T05:20:20.341Z,72.48
2017-08-31T05:21:17.653Z,72.50
2017-08-31T05:22:15.042Z,72.49
2017-08-31T05:23:12.415Z,72.47
2017-08-31T05:24:09.790Z,72.48
2017-08-31T05:25:07.173Z,72.48
2017-08-31T05:26:04.510Z,72.47
2017-08-31T05:27:02.019Z,72.43
2017-08-31T05:27:59.414Z,72.46
2017-08-31T05:28:56.753Z,72.48
2017-08-31T05:29:54.105Z,72.46
2017-08-31T05:30:51.430Z,72.46
2017-08-31T05:31:48.772Z,72.44
2017-08-31T05:32:46.101Z,72.46
2017-08-31T05:33:43.453Z,72.47
2017-08-31T05:34:40.772Z,72.47
2017-08-31T05:35:38.114Z,72.44
2017-08-31T05:36:35.430Z,72.45
2017-08-31T05:37:32.805Z,72.46
2017-08-31T05:38:30.112Z,72.48
2017-08-31T05:39:27.456Z,72.50
2017-08-31T05:40:24.792Z,72.52
2017-08-31T05:41:24.142Z,72.50
2017-08-31T05:42:23.491Z,72.52
2017-08-31T05:43:22.881Z,72.54
2017-08-31T05:44:22.241Z,72.54
2017-08-31T05:45:21.585Z,72.54
2017-08-31T05:46:20.914Z,72.56
2017-08-31T05:47:20.236Z,72.56
2017-08-31T05:48:17.532Z,72.55
2017-08-31T05:49:14.894Z,72.56
2017-08-31T05:50:14.213Z,72.58
2017-08-31T05:51:13.519Z,72.56
2017-08-31T05:52:12.895Z,72.56
2017-08-31T05:53:12.216Z,72.59
2017-08-31T05:54:11.557Z,72.61
2017-08-31T05:55:08.891Z,72.60
2017-08-31T05:56:06.221Z,72.61
2017-08-31T05:57:05.523Z,72.61
2017-08-31T05:58:04.849Z,72.61
2017-08-31T05:59:04.225Z,72.61
2017-08-31T06:00:03.571Z,72.61
2017-08-31T06:01:00.852Z,72.62
2017-08-31T06:01:58.215Z,72.61
2017-08-31T06:02:55.562Z,72.61
2017-08-31T06:03:52.893Z,72.61
2017-08-31T06:04:50.252Z,72.59
2017-08-31T06:05:47.598Z,72.58
2017-08-31T06:06:44.884Z,72.59
2017-08-31T06:07:42.221Z,72.61
2017-08-31T06:08:39.544Z,72.61
2017-08-31T06:09:36.910Z,72.61
2017-08-31T06:10:34.232Z,72.62
2017-08-31T06:11:33.569Z,72.62
2017-08-31T06:12:32.923Z,72.64
2017-08-31T06:13:30.311Z,72.65
2017-08-31T06:14:29.638Z,72.67
2017-08-31T06:15:29.246Z,72.67
2017-08-31T06:16:26.548Z,72.67
2017-08-31T06:17:23.837Z,72.68
2017-08-31T06:18:21.138Z,72.71
2017-08-31T06:19:18.408Z,72.72
2017-08-31T06:20:15.716Z,72.71
2017-08-31T06:21:12.964Z,72.71
2017-08-31T06:22:10.242Z,72.69
2017-08-31T06:23:07.510Z,72.72
2017-08-31T06:24:04.806Z,72.75
2017-08-31T06:25:02.188Z,72.74
2017-08-31T06:25:59.526Z,72.75
2017-08-31T06:26:56.790Z,72.74
2017-08-31T06:27:54.139Z,72.75
2017-08-31T06:28:51.424Z,72.79
2017-08-31T06:29:48.755Z,72.78
2017-08-31T06:30:46.000Z,72.81
2017-08-31T06:31:43.326Z,72.83
2017-08-31T06:32:40.582Z,72.82
2017-08-31T06:33:37.867Z,72.84
2017-08-31T06:34:35.128Z,72.82
2017-08-31T06:35:32.462Z,72.85
2017-08-31T06:36:29.801Z,72.87
2017-08-31T06:37:27.097Z,72.85
2017-08-31T06:38:24.353Z,72.85
2017-08-31T06:39:21.701Z,72.86
2017-08-31T06:40:18.986Z,72.85
2017-08-31T06:41:16.270Z,72.88
2017-08-31T06:42:13.565Z,72.90
2017-08-31T06:43:10.842Z,72.91
2017-08-31T06:44:08.102Z,72.90
2017-08-31T06:45:05.406Z,72.94
2017-08-31T06:46:02.662Z,72.94
2017-08-31T06:46:59.969Z,72.96
2017-08-31T06:47:57.244Z,72.96
2017-08-31T06:48:54.528Z,72.98
2017-08-31T06:49:51.806Z,72.98
2017-08-31T06:50:49.111Z,72.98
2017-08-31T06:51:46.421Z,72.99
2017-08-31T06:52:43.693Z,72.99
2017-08-31T06:53:40.953Z,73.04
2017-08-31T06:54:38.222Z,73.06
2017-08-31T06:55:35.474Z,73.06
2017-08-31T06:56:32.773Z,73.07
2017-08-31T06:57:30.049Z,73.09
2017-08-31T06:58:27.329Z,73.11
2017-08-31T06:59:24.625Z,73.12
2017-08-31T07:00:21.912Z,73.13
2017-08-31T07:01:19.157Z,73.14
2017-08-31T07:02:16.447Z,73.13
2017-08-31T07:03:13.700Z,73.14
2017-08-31T07:04:11.075Z,73.12
2017-08-31T07:05:08.322Z,73.13
2017-08-31T07:06:05.597Z,73.14
2017-08-31T07:07:02.881Z,73.13
2017-08-31T07:08:00.190Z,73.15
2017-08-31T07:08:57.757Z,73.15
2017-08-31T07:09:55.134Z,73.12
2017-08-31T07:10:52.397Z,73.11
2017-08-31T07:11:49.689Z,73.10
2017-08-31T07:12:46.983Z,73.15
2017-08-31T07:13:44.294Z,73.13
2017-08-31T07:14:41.606Z,73.09
2017-08-31T07:15:39.001Z,73.09
2017-08-31T07:16:36.335Z,73.09
2017-08-31T07:17:33.662Z,73.07
2017-08-31T07:18:30.981Z,73.06
2017-08-31T07:19:28.294Z,73.07
2017-08-31T07:20:25.676Z,73.04
2017-08-31T07:21:22.962Z,73.02
2017-08-31T07:22:20.238Z,73.04
2017-08-31T07:23:17.550Z,73.05
2017-08-31T07:24:14.824Z,73.03
2017-08-31T07:25:14.202Z,73.02
2017-08-31T07:26:11.561Z,73.00
2017-08-31T07:27:08.969Z,73.00
2017-08-31T07:28:08.317Z,72.97
2017-08-31T07:29:07.653Z,72.98
2017-08-31T07:30:07.007Z,72.98
2017-08-31T07:31:04.315Z,72.98
2017-08-31T07:32:01.586Z,72.96
2017-08-31T07:32:58.901Z,72.93
2017-08-31T07:33:56.154Z,72.90
2017-08-31T07:34:53.434Z,72.86
2017-08-31T07:35:50.777Z,72.85
2017-08-31T07:36:48.112Z,72.83
2017-08-31T07:37:45.382Z,72.81
2017-08-31T07:38:42.696Z,72.81
2017-08-31T07:39:39.953Z,72.79
2017-08-31T07:40:37.229Z,72.80
2017-08-31T07:41:34.509Z,72.78
2017-08-31T07:42:31.785Z,72.75
2017-08-31T07:43:29.070Z,72.77
2017-08-31T07:44:26.382Z,72.78
2017-08-31T07:45:23.755Z,72.80
2017-08-31T07:46:21.034Z,72.80
2017-08-31T07:47:18.357Z,72.80
2017-08-31T07:48:15.649Z,72.81
2017-08-31T07:49:12.940Z,72.78
2017-08-31T07:50:12.289Z,72.81
2017-08-31T07:51:09.556Z,72.80
2017-08-31T07:52:06.864Z,72.79
2017-08-31T07:53:04.133Z,72.79
2017-08-31T07:54:01.458Z,72.78
2017-08-31T07:54:58.732Z,72.81
2017-08-31T07:55:56.104Z,72.84
2017-08-31T07:56:53.365Z,72.82
2017-08-31T07:57:50.640Z,72.80
2017-08-31T07:58:47.940Z,72.79
2017-08-31T07:59:45.413Z,72.77
2017-08-31T08:00:42.674Z,72.73
2017-08-31T08:01:39.967Z,72.72
2017-08-31T08:02:37.225Z,72.72
2017-08-31T08:03:34.497Z,72.70
2017-08-31T08:04:31.798Z,72.68
2017-08-31T08:05:29.078Z,72.67
2017-08-31T08:06:26.330Z,72.66
2017-08-31T08:07:23.617Z,72.64
2017-08-31T08:08:22.931Z,72.63
2017-08-31T08:09:20.193Z,72.66
2017-08-31T08:10:17.489Z,72.63
2017-08-31T08:11:14.751Z,72.63
2017-08-31T08:12:12.026Z,72.61
2017-08-31T08:13:09.293Z,72.58
2017-08-31T08:14:06.614Z,72.56
2017-08-31T08:15:03.876Z,72.57
2017-08-31T08:16:01.143Z,72.55
2017-08-31T08:16:58.389Z,72.53
2017-08-31T08:17:55.676Z,72.52
2017-08-31T08:18:52.942Z,72.51
2017-08-31T08:19:50.251Z,72.50
2017-08-31T08:20:47.521Z,72.49
2017-08-31T08:21:44.831Z,72.48
2017-08-31T08:22:42.097Z,72.49
2017-08-31T08:23:39.377Z,72.47
2017-08-31T08:24:36.650Z,72.47
2017-08-31T08:25:33.930Z,72.45
2017-08-31T08:26:31.214Z,72.47
2017-08-31T08:27:28.537Z,72.47
2017-08-31T08:28:25.824Z,72.47
2017-08-31T08:29:23.098Z,72.48
2017-08-31T08:30:20.391Z,72.49
2017-08-31T08:31:17.677Z,72.47
2017-08-31T08:32:14.945Z,72.46
2017-08-31T08:33:12.214Z,72.46
2017-08-31T08:34:09.473Z,72.45
2017-08-31T08:35:06.778Z,72.43
2017-08-31T08:36:04.037Z,72.44
2017-08-31T08:37:01.369Z,72.44
2017-08-31T08:37:58.616Z,72.42
2017-08-31T08:38:55.905Z,72.40
2017-08-31T08:39:53.178Z,72.41
2017-08-31T08:40:50.438Z,72.42
2017-08-31T08:41:47.706Z,72.44
2017-08-31T08:42:44.993Z,72.43
2017-08-31T08:43:42.226Z,72.39
2017-08-31T08:44:39.482Z,72.39
2017-08-31T08:45:36.753Z,72.38
2017-08-31T08:46:34.117Z,72.40
2017-08-31T08:47:31.406Z,72.38
2017-08-31T08:48:28.702Z,72.34
2017-08-31T08:49:28.018Z,72.36
2017-08-31T08:50:25.378Z,72.34
2017-08-31T08:51:24.716Z,72.33
2017-08-31T08:52:22.017Z,72.31
2017-08-31T08:53:21.337Z,72.30
2017-08-31T08:54:18.585Z,72.32
2017-08-31T08:55:15.877Z,72.33
2017-08-31T08:56:13.114Z,72.31
2017-08-31T08:57:10.366Z,72.28
2017-08-31T08:58:07.601Z,72.25
2017-08-31T08:59:04.888Z,72.30
2017-08-31T09:00:02.158Z,72.29
2017-08-31T09:01:01.486Z,72.24
2017-08-31T09:01:58.736Z,72.26
2017-08-31T09:02:55.998Z,72.24
2017-08-31T09:03:53.271Z,72.28
2017-08-31T09:04:50.585Z,72.28
2017-08-31T09:05:47.865Z,72.28
2017-08-31T09:06:45.150Z,72.28
2017-08-31T09:07:42.413Z,72.28
2017-08-31T09:08:39.983Z,72.28
2017-08-31T09:09:37.377Z,72.27
2017-08-31T09:10:34.649Z,72.23
2017-08-31T09:11:31.925Z,72.24
2017-08-31T09:12:29.201Z,72.20
2017-08-31T09:13:26.466Z,72.22
2017-08-31T09:14:23.740Z,72.20
2017-08-31T09:15:23.042Z,72.15
2017-08-31T09:16:20.326Z,72.17
2017-08-31T09:17:17.566Z,72.14
2017-08-31T09:18:14.878Z,72.11
2017-08-31T09:19:12.165Z,72.11
2017-08-31T09:20:09.438Z,72.08
2017-08-31T09:21:06.689Z,72.04
2017-08-31T09:22:03.990Z,72.02
2017-08-31T09:23:01.247Z,72.02
2017-08-31T09:23:58.530Z,72.01
2017-08-31T09:24:55.762Z,71.98
2017-08-31T09:25:53.050Z,72.00
2017-08-31T09:26:50.321Z,72.00
2017-08-31T09:27:47.610Z,71.99
2017-08-31T09:28:44.983Z,71.99
2017-08-31T09:29:42.278Z,71.99
2017-08-31T09:30:39.529Z,71.97
2017-08-31T09:31:36.886Z,71.94
2017-08-31T09:32:34.157Z,71.94
2017-08-31T09:33:31.443Z,71.92
2017-08-31T09:34:28.722Z,71.93
2017-08-31T09:35:26.016Z,71.88
2017-08-31T09:36:23.324Z,71.85
2017-08-31T09:37:20.626Z,71.85
2017-08-31T09:38:17.930Z,71.86
2017-08-31T09:39:15.229Z,71.85
2017-08-31T09:40:12.477Z,71.86
2017-08-31T09:41:09.750Z,71.84
2017-08-31T09:42:07.014Z,71.83
2017-08-31T09:43:04.314Z,71.82
2017-08-31T09:44:01.636Z,71.77
2017-08-31T09:44:58.973Z,71.79
2017-08-31T09:45:56.235Z,71.80
2017-08-31T09:46:53.525Z,71.75
2017-08-31T09:47:50.789Z,71.73
2017-08-31T09:48:48.054Z,71.74
2017-08-31T09:49:45.329Z,71.73
2017-08-31T09:50:42.606Z,71.73
2017-08-31T09:51:39.849Z,71.71
2017-08-31T09:52:37.133Z,71.65
2017-08-31T09:53:34.385Z,71.63
2017-08-31T09:54:31.633Z,71.66
2017-08-31T09:55:28.892Z,71.70
2017-08-31T09:56:26.145Z,71.67
2017-08-31T09:57:23.431Z,71.64
2017-08-31T09:58:20.709Z,71.64
2017-08-31T09:59:17.949Z,71.63
2017-08-31T10:00:15.254Z,71.62
2017-08-31T10:01:12.481Z,71.59
2017-08-31T10:02:09.772Z,71.62
2017-08-31T10:03:07.037Z,71.62
2017-08-31T10:04:04.338Z,71.60
2017-08-31T10:05:01.586Z,71.55
2017-08-31T10:05:58.834Z,71.51
2017-08-31T10:06:56.082Z,71.49
2017-08-31T10:07:53.381Z,71.50
2017-08-31T10:08:50.709Z,71.48
2017-08-31T10:09:47.990Z,71.46
2017-08-31T10:10:45.225Z,71.46
2017-08-31T10:11:42.518Z,71.46
2017-08-31T10:12:39.818Z,71.47
2017-08-31T10:13:37.089Z,71.42
2017-08-31T10:14:34.339Z,71.40
2017-08-31T10:15:31.593Z,71.39
2017-08-31T10:16:28.860Z,71.37
2017-08-31T10:17:26.138Z,71.35
2017-08-31T10:18:23.409Z,71.27
2017-08-31T10:19:20.673Z,71.25
2017-08-31T10:20:17.933Z,71.21
2017-08-31T10:21:15.241Z,71.20
2017-08-31T10:22:12.498Z,71.18
2017-08-31T10:23:09.789Z,71.19
2017-08-31T10:24:07.049Z,71.18
2017-08-31T10:25:04.336Z,71.14
2017-08-31T10:26:01.593Z,71.13
2017-08-31T10:26:58.863Z,71.10
2017-08-31T10:27:58.243Z,71.07
2017-08-31T10:28:57.594Z,71.07
2017-08-31T10:29:54.925Z,71.06
2017-08-31T10:30:52.320Z,71.05
2017-08-31T10:31:49.612Z,71.05
2017-08-31T10:32:46.949Z,71.01
2017-08-31T10:33:44.269Z,70.98
2017-08-31T10:34:41.629Z,70.96
2017-08-31T10:35:38.947Z,70.95
2017-08-31T10:36:36.281Z,70.96
2017-08-31T10:37:33.594Z,70.94
2017-08-31T10:38:30.949Z,70.91
2017-08-31T10:39:28.257Z,70.88
2017-08-31T10:40:25.584Z,70.86
2017-08-31T10:41:22.889Z,70.86
2017-08-31T10:42:20.229Z,70.84
2017-08-31T10:43:17.609Z,70.81
2017-08-31T10:44:14.965Z,70.77
2017-08-31T10:45:12.407Z,70.75
2017-08-31T10:46:09.721Z,70.75
2017-08-31T10:47:07.021Z,70.75
2017-08-31T10:48:04.340Z,70.73
2017-08-31T10:49:01.663Z,70.73
2017-08-31T10:49:59.040Z,70.70
2017-08-31T10:50:56.409Z,70.70
2017-08-31T10:51:53.776Z,70.67
2017-08-31T10:52:51.124Z,70.71
2017-08-31T10:53:48.609Z,70.68
2017-08-31T10:54:45.949Z,70.68
2017-08-31T10:55:43.268Z,70.70
2017-08-31T10:56:40.610Z,70.67
2017-08-31T10:57:37.938Z,70.68
2017-08-31T10:58:35.250Z,70.67
2017-08-31T10:59:32.634Z,70.65
2017-08-31T11:00:29.941Z,70.62
2017-08-31T11:01:27.269Z,70.60
2017-08-31T11:02:24.642Z,70.61
2017-08-31T11:03:21.998Z,70.58
2017-08-31T11:04:19.326Z,70.55
2017-08-31T11:05:16.656Z,70.56
2017-08-31T11:06:13.990Z,70.58
2017-08-31T11:07:11.342Z,70.60
2017-08-31T11:08:08.764Z,70.60
2017-08-31T11:09:06.254Z,70.57
2017-08-31T11:10:03.748Z,70.57
2017-08-31T11:11:02.293Z,70.58
2017-08-31T11:11:59.675Z,70.57
2017-08-31T11:12:57.048Z,70.52
2017-08-31T11:13:54.381Z,70.54
2017-08-31T11:14:51.729Z,70.53
2017-08-31T11:15:49.069Z,70.55
2017-08-31T11:16:46.413Z,70.59
2017-08-31T11:17:43.718Z,70.57
2017-08-31T11:18:41.127Z,70.53
2017-08-31T11:19:38.512Z,70.53
2017-08-31T11:20:35.934Z,70.51
2017-08-31T11:21:33.241Z,70.48
2017-08-31T11:22:30.601Z,70.46
2017-08-31T11:23:29.937Z,70.43
2017-08-31T11:24:29.265Z,70.42
2017-08-31T11:25:26.570Z,70.40
2017-08-31T11:26:23.958Z,70.36
2017-08-31T11:27:21.565Z,70.33
2017-08-31T11:28:18.704Z,70.32
2017-08-31T11:29:16.141Z,70.29
2017-08-31T11:30:15.509Z,70.28
2017-08-31T11:31:12.755Z,70.27
2017-08-31T11:32:12.098Z,70.23
2017-08-31T11:33:09.466Z,70.22
2017-08-31T11:34:06.838Z,70.19
2017-08-31T11:35:04.278Z,70.17
2017-08-31T11:36:01.487Z,70.13
2017-08-31T11:36:58.836Z,70.08
2017-08-31T11:37:56.005Z,70.09
2017-08-31T11:38:53.277Z,70.04
2017-08-31T11:39:50.525Z,70.07
2017-08-31T11:40:47.809Z,70.05
2017-08-31T11:41:45.053Z,70.01
2017-08-31T11:42:42.350Z,70.00
2017-08-31T11:43:39.581Z,69.98
2017-08-31T11:44:36.871Z,69.96
2017-08-31T11:45:34.133Z,69.97
2017-08-31T11:46:31.397Z,69.94
2017-08-31T11:47:28.634Z,69.91
2017-08-31T11:48:25.921Z,69.92
2017-08-31T11:49:23.216Z,69.94
2017-08-31T11:50:20.535Z,69.94
2017-08-31T11:51:17.793Z,69.91
2017-08-31T11:52:15.059Z,69.90
2017-08-31T11:53:12.313Z,69.87
2017-08-31T11:54:09.602Z,69.89
2017-08-31T11:55:06.873Z,69.86
2017-08-31T11:56:04.161Z,69.87
2017-08-31T11:57:01.414Z,69.86
2017-08-31T11:57:58.692Z,69.83
2017-08-31T11:58:55.989Z,69.82
2017-08-31T11:59:53.250Z,69.81
2017-08-31T12:00:50.489Z,69.80
2017-08-31T12:01:47.777Z,69.78
2017-08-31T12:02:45.018Z,69.75
2017-08-31T12:03:42.269Z,69.72
2017-08-31T12:04:39.497Z,69.72
2017-08-31T12:05:36.774Z,69.72
2017-08-31T12:06:34.022Z,69.69
2017-08-31T12:07:31.298Z,69.71
2017-08-31T12:08:28.564Z,69.72
2017-08-31T12:09:25.836Z,69.73
2017-08-31T12:10:23.073Z,69.72
2017-08-31T12:11:20.393Z,69.71
2017-08-31T12:12:17.672Z,69.71
2017-08-31T12:13:14.934Z,69.69
2017-08-31T12:14:12.213Z,69.68
2017-08-31T12:15:09.490Z,69.72
2017-08-31T12:16:06.741Z,69.71
2017-08-31T12:17:04.017Z,69.71
2017-08-31T12:18:01.272Z,69.72
2017-08-31T12:18:58.614Z,69.71